createdAt,value
2018-02-09T00:01:59.660Z,6.20
2018-02-09T00:04:27.560Z,6.10
2018-02-09T00:06:55.464Z,6.20
2018-02-09T00:09:24.094Z,6.20
2018-02-09T00:11:52.066Z,6.20
2018-02-09T00:14:19.955Z,6.20
2018-02-09T00:16:47.828Z,6.20
2018-02-09T00:19:15.716Z,6.20
2018-02-09T00:21:44.373Z,6.30
2018-02-09T00:24:12.338Z,6.30
2018-02-09T00:26:40.308Z,6.30
2018-02-09T00:29:08.160Z,6.30
2018-02-09T00:31:36.121Z,6.30
2018-02-09T00:34:04.009Z,6.30
2018-02-09T00:36:31.878Z,6.30
2018-02-09T00:38:59.827Z,6.30
2018-02-09T00:41:27.817Z,6.30
2018-02-09T00:43:55.691Z,6.30
2018-02-09T00:46:23.544Z,6.40
2018-02-09T00:48:51.483Z,6.40
2018-02-09T00:51:19.354Z,6.30
2018-02-09T00:53:47.311Z,6.30
2018-02-09T00:56:15.223Z,6.30
2018-02-09T00:58:43.113Z,6.30
2018-02-09T01:01:11.832Z,6.20
2018-02-09T01:03:39.756Z,6.20
2018-02-09T01:06:08.393Z,6.20
2018-02-09T01:08:36.289Z,6.20
2018-02-09T01:11:04.243Z,6.20
2018-02-09T01:13:32.237Z,6.20
2018-02-09T01:16:00.189Z,6.20
2018-02-09T01:18:28.123Z,6.30
2018-02-09T01:20:56.004Z,6.30
2018-02-09T01:23:23.897Z,6.30
2018-02-09T01:25:51.773Z,6.30
2018-02-09T01:28:19.672Z,6.30
2018-02-09T01:30:47.620Z,6.30
2018-02-09T01:33:16.312Z,6.30
2018-02-09T01:35:44.988Z,6.30
2018-02-09T01:38:13.683Z,6.30
2018-02-09T01:40:42.337Z,6.30
2018-02-09T01:43:10.191Z,6.30
2018-02-09T01:45:38.104Z,6.30
2018-02-09T01:48:06.740Z,6.40
2018-02-09T01:50:34.710Z,6.30
2018-02-09T01:53:02.598Z,6.40
2018-02-09T01:55:30.594Z,6.40
2018-02-09T01:57:59.288Z,6.40
2018-02-09T02:00:27.230Z,6.40
2018-02-09T02:02:55.181Z,6.40
2018-02-09T02:05:23.118Z,6.40
2018-02-09T02:07:51.031Z,6.40
2018-02-09T02:10:18.957Z,6.40
2018-02-09T02:12:46.927Z,6.40
2018-02-09T02:15:14.876Z,6.40
2018-02-09T02:17:42.809Z,6.40
2018-02-09T02:20:11.521Z,6.40
2018-02-09T02:22:39.419Z,6.40
2018-02-09T02:25:07.343Z,6.40
2018-02-09T02:27:36.122Z,6.40
2018-02-09T02:30:04.957Z,6.40
2018-02-09T02:32:32.971Z,6.40
2018-02-09T02:35:00.898Z,6.40
2018-02-09T02:37:28.799Z,6.40
2018-02-09T02:39:56.703Z,6.40
2018-02-09T02:42:24.615Z,6.40
2018-02-09T02:44:52.523Z,6.40
2018-02-09T02:47:21.301Z,6.30
2018-02-09T02:49:50.053Z,6.20
2018-02-09T02:52:17.954Z,6.20
2018-02-09T02:54:46.637Z,6.20
2018-02-09T02:59:49.644Z,6.10
2018-02-09T03:02:18.311Z,6.00
2018-02-09T03:04:46.189Z,6.00
2018-02-09T03:07:14.100Z,6.00
2018-02-09T03:09:42.005Z,6.00
2018-02-09T03:12:09.931Z,6.00
2018-02-09T03:14:37.942Z,5.90
2018-02-09T03:17:05.874Z,5.90
2018-02-09T03:19:33.793Z,5.90
2018-02-09T03:22:01.762Z,5.90
2018-02-09T03:24:29.695Z,5.90
2018-02-09T03:26:57.562Z,5.80
2018-02-09T03:29:25.489Z,5.80
2018-02-09T03:31:53.422Z,5.80
2018-02-09T03:34:21.312Z,5.80
2018-02-09T03:36:49.996Z,5.80
2018-02-09T03:39:18.678Z,5.80
2018-02-09T03:41:47.447Z,5.80
2018-02-09T03:44:15.383Z,5.80
2018-02-09T03:46:43.371Z,5.80
2018-02-09T03:49:11.328Z,5.80
2018-02-09T03:51:39.229Z,5.80
2018-02-09T03:54:07.118Z,5.80
2018-02-09T03:56:35.875Z,5.80
2018-02-09T03:59:03.789Z,5.80
2018-02-09T04:01:31.786Z,5.80
2018-02-09T04:03:59.777Z,5.80
2018-02-09T04:06:27.746Z,5.80
2018-02-09T04:08:55.721Z,5.80
2018-02-09T04:11:23.612Z,5.80
2018-02-09T04:13:52.294Z,5.80
2018-02-09T04:16:20.986Z,5.80
2018-02-09T04:18:49.684Z,5.80
2018-02-09T04:21:17.757Z,5.90
2018-02-09T04:23:45.676Z,5.90
2018-02-09T04:26:13.594Z,5.90
2018-02-09T04:28:41.479Z,5.90
2018-02-09T04:31:09.352Z,5.90
2018-02-09T04:33:37.307Z,5.90
2018-02-09T04:36:05.172Z,5.90
2018-02-09T04:41:08.051Z,5.90
2018-02-09T04:43:36.281Z,5.90
2018-02-09T04:46:04.195Z,5.90
2018-02-09T04:48:32.118Z,5.90
2018-02-09T04:51:00.126Z,5.90
2018-02-09T04:53:28.829Z,5.90
2018-02-09T04:55:56.764Z,5.90
2018-02-09T04:58:25.470Z,5.90
2018-02-09T05:00:53.391Z,5.90
2018-02-09T05:03:21.425Z,6.00
2018-02-09T05:05:49.369Z,6.00
2018-02-09T05:08:18.058Z,6.00
2018-02-09T05:10:46.791Z,6.00
2018-02-09T05:13:14.735Z,6.00
2018-02-09T05:15:42.676Z,6.00
2018-02-09T05:18:11.383Z,6.00
2018-02-09T05:20:39.343Z,5.90
2018-02-09T05:23:07.374Z,5.90
2018-02-09T05:25:35.291Z,5.90
2018-02-09T05:28:03.231Z,5.90
2018-02-09T05:30:32.027Z,5.80
2018-02-09T05:33:00.763Z,5.80
2018-02-09T05:35:28.742Z,5.80
2018-02-09T05:37:56.739Z,5.70
2018-02-09T05:40:24.652Z,5.70
2018-02-09T05:42:52.602Z,5.70
2018-02-09T05:45:20.756Z,5.60
2018-02-09T05:47:49.503Z,5.60
2018-02-09T05:50:17.514Z,5.50
2018-02-09T05:52:46.177Z,5.50
2018-02-09T05:55:14.163Z,5.50
2018-02-09T05:57:42.911Z,5.40
2018-02-09T06:00:10.856Z,5.40
2018-02-09T06:02:38.848Z,5.40
2018-02-09T06:05:06.862Z,5.40
2018-02-09T06:07:35.615Z,5.40
2018-02-09T06:10:03.515Z,5.30
2018-02-09T06:12:32.278Z,5.30
2018-02-09T06:15:00.255Z,5.30
2018-02-09T06:17:28.281Z,5.30
2018-02-09T06:19:56.213Z,5.30
2018-02-09T06:22:24.897Z,5.20
2018-02-09T06:24:53.572Z,5.10
2018-02-09T06:27:22.265Z,5.00
2018-02-09T06:29:50.925Z,5.00
2018-02-09T06:32:18.943Z,5.00
2018-02-09T06:34:46.940Z,5.00
2018-02-09T06:37:14.816Z,5.00
2018-02-09T06:39:42.728Z,5.00
2018-02-09T06:42:11.422Z,4.90
2018-02-09T06:44:39.318Z,4.90
2018-02-09T06:47:07.338Z,4.90
2018-02-09T06:49:36.081Z,4.90
2018-02-09T06:52:04.118Z,4.90
2018-02-09T06:54:32.083Z,4.90
2018-02-09T06:57:00.000Z,4.90
2018-02-09T06:59:27.907Z,4.90
2018-02-09T07:01:56.591Z,4.90
2018-02-09T07:04:25.280Z,5.00
2018-02-09T07:06:53.960Z,5.00
2018-02-09T07:09:22.652Z,5.00
2018-02-09T07:11:51.337Z,5.10
2018-02-09T07:14:19.219Z,5.10
2018-02-09T07:16:47.136Z,5.10
2018-02-09T07:19:15.070Z,5.20
2018-02-09T07:21:43.049Z,5.20
2018-02-09T07:24:10.940Z,5.20
2018-02-09T07:26:38.830Z,5.30
2018-02-09T07:29:07.560Z,5.30
2018-02-09T07:31:35.572Z,5.30
2018-02-09T07:34:03.534Z,5.40
2018-02-09T07:36:31.543Z,5.40
2018-02-09T07:38:59.503Z,5.50
2018-02-09T07:41:28.176Z,5.60
2018-02-09T07:43:56.943Z,5.70
2018-02-09T07:46:24.915Z,5.70
2018-02-09T07:48:52.878Z,5.80
2018-02-09T07:51:20.856Z,5.80
2018-02-09T07:53:48.810Z,5.90
2018-02-09T07:56:16.851Z,6.00
2018-02-09T07:58:44.747Z,6.10
2018-02-09T08:01:12.682Z,6.20
2018-02-09T08:03:40.686Z,6.30
2018-02-09T08:06:08.607Z,6.40
2018-02-09T08:08:36.525Z,6.50
2018-02-09T08:11:04.510Z,6.60
2018-02-09T08:13:32.454Z,6.70
2018-02-09T08:16:00.514Z,6.80
2018-02-09T08:18:28.443Z,6.90
2018-02-09T08:20:56.360Z,7.00
2018-02-09T08:23:24.231Z,7.10
2018-02-09T08:25:52.228Z,7.20
2018-02-09T08:28:20.918Z,7.40
2018-02-09T08:30:49.585Z,7.60
2018-02-09T08:33:17.502Z,7.50
2018-02-09T08:35:45.415Z,7.60
2018-02-09T08:38:13.350Z,7.80
2018-02-09T08:40:41.348Z,7.90
2018-02-09T08:43:09.422Z,8.00
2018-02-09T08:45:37.375Z,8.10
2018-02-09T08:48:05.266Z,8.20
2018-02-09T08:50:33.211Z,8.30
2018-02-09T08:53:01.174Z,8.30
2018-02-09T08:55:29.139Z,8.40
2018-02-09T08:57:57.067Z,8.40
2018-02-09T09:00:25.006Z,8.50
2018-02-09T09:02:52.884Z,8.60
2018-02-09T09:05:21.571Z,8.70
2018-02-09T09:07:50.273Z,8.70
2018-02-09T09:10:18.222Z,8.70
2018-02-09T09:12:46.939Z,8.90
2018-02-09T09:15:14.976Z,8.80
2018-02-09T09:17:43.666Z,9.00
2018-02-09T09:20:12.351Z,9.10
2018-02-09T09:22:41.099Z,9.20
2018-02-09T09:25:09.030Z,9.20
2018-02-09T09:27:36.964Z,9.20
2018-02-09T09:30:05.681Z,9.40
2018-02-09T09:32:33.717Z,9.40
2018-02-09T09:35:02.510Z,9.60
2018-02-09T09:37:31.275Z,9.70
2018-02-09T09:39:59.201Z,9.70
2018-02-09T09:42:27.215Z,9.90
2018-02-09T09:44:55.135Z,10.10
2018-02-09T09:47:23.056Z,10.20
2018-02-09T09:49:50.960Z,10.40
2018-02-09T09:52:19.722Z,10.90
2018-02-09T09:54:47.723Z,10.80
2018-02-09T09:57:15.678Z,11.10
2018-02-09T09:59:44.460Z,11.40
2018-02-09T10:02:24.920Z,11.50
2018-02-09T10:04:53.613Z,11.70
2018-02-09T10:07:22.297Z,11.90
2018-02-09T10:09:51.016Z,12.10
2018-02-09T10:12:19.030Z,12.10
2018-02-09T10:14:46.923Z,12.30
2018-02-09T10:17:15.618Z,12.40
2018-02-09T10:19:43.566Z,12.40
2018-02-09T10:22:12.312Z,12.60
2018-02-09T10:24:40.241Z,12.60
2018-02-09T10:27:08.142Z,12.70
2018-02-09T10:29:36.092Z,12.90
2018-02-09T10:32:04.027Z,13.10
2018-02-09T10:34:32.722Z,13.30
2018-02-09T10:37:01.515Z,13.40
2018-02-09T10:39:29.394Z,13.40
2018-02-09T10:41:57.383Z,13.40
2018-02-09T10:44:25.346Z,13.40
2018-02-09T10:46:53.256Z,13.40
2018-02-09T10:49:21.191Z,13.40
2018-02-09T10:51:49.108Z,13.50
2018-02-09T10:54:17.850Z,13.80
2018-02-09T10:56:45.867Z,13.80
2018-02-09T10:59:14.608Z,14.00
2018-02-09T11:01:42.568Z,14.00
2018-02-09T11:04:10.494Z,14.10
2018-02-09T11:06:39.187Z,14.20
2018-02-09T11:09:07.196Z,14.10
2018-02-09T11:11:35.194Z,14.20
2018-02-09T11:14:03.087Z,14.20
2018-02-09T11:16:31.762Z,14.30
2018-02-09T11:19:00.566Z,14.30
2018-02-09T11:21:28.466Z,14.30
2018-02-09T11:23:56.490Z,14.30
2018-02-09T11:26:25.170Z,14.10
2018-02-09T11:28:53.977Z,13.90
2018-02-09T11:31:21.892Z,13.90
2018-02-09T11:33:49.814Z,13.80
2018-02-09T11:36:17.750Z,13.70
2018-02-09T11:38:45.635Z,13.60
2018-02-09T11:41:14.344Z,13.40
2018-02-09T11:43:42.265Z,13.40
2018-02-09T11:46:10.292Z,13.40
2018-02-09T11:48:38.250Z,13.60
2018-02-09T11:51:06.242Z,13.80
2018-02-09T11:53:34.234Z,14.10
2018-02-09T11:56:02.184Z,14.40
2018-02-09T11:58:30.172Z,14.80
2018-02-09T12:00:58.089Z,15.30
2018-02-09T12:03:25.986Z,15.60
2018-02-09T12:05:53.990Z,16.00
2018-02-09T12:08:21.929Z,16.30
2018-02-09T12:10:49.921Z,16.70
2018-02-09T12:13:17.849Z,16.80
2018-02-09T12:15:46.157Z,16.70
2018-02-09T12:18:14.101Z,16.60
2018-02-09T12:20:42.023Z,17.00
2018-02-09T12:25:44.914Z,17.90
2018-02-09T12:28:12.877Z,18.60
2018-02-09T12:30:40.822Z,19.40
2018-02-09T12:33:08.754Z,20.20
2018-02-09T12:35:36.766Z,20.80
2018-02-09T12:38:04.759Z,21.40
2018-02-09T12:40:33.435Z,22.40
2018-02-09T12:43:01.365Z,22.30
2018-02-09T12:45:29.410Z,22.70
2018-02-09T12:47:57.407Z,22.90
2018-02-09T12:50:25.330Z,23.10
2018-02-09T12:52:54.118Z,23.50
2018-02-09T12:55:22.751Z,23.60
2018-02-09T12:57:50.712Z,23.60
2018-02-09T13:00:18.624Z,23.70
2018-02-09T13:02:46.559Z,23.30
2018-02-09T13:05:14.511Z,22.60
2018-02-09T13:07:42.522Z,21.80
2018-02-09T13:10:10.554Z,21.20
2018-02-09T13:12:50.299Z,20.80
2018-02-09T13:15:18.273Z,20.90
2018-02-09T13:17:46.271Z,21.10
2018-02-09T13:20:14.167Z,21.40
2018-02-09T13:22:54.713Z,22.00
2018-02-09T13:25:22.688Z,22.00
2018-02-09T13:27:51.460Z,22.60
2018-02-09T13:30:19.408Z,22.50
2018-02-09T13:32:59.439Z,22.60
2018-02-09T13:35:27.563Z,22.50
2018-02-09T13:37:55.355Z,22.30
2018-02-09T13:40:23.295Z,22.20
2018-02-09T13:42:51.194Z,22.10
2018-02-09T13:45:19.368Z,22.10
2018-02-09T13:47:47.322Z,21.80
2018-02-09T13:50:16.073Z,20.90
2018-02-09T13:52:44.052Z,20.90
2018-02-09T13:55:11.990Z,20.50
2018-02-09T13:57:40.035Z,20.10
2018-02-09T14:00:07.948Z,19.70
2018-02-09T14:02:35.937Z,19.10
2018-02-09T14:05:04.641Z,17.90
2018-02-09T14:07:33.506Z,17.30
2018-02-09T14:10:01.535Z,17.30
2018-02-09T14:12:29.479Z,16.80
2018-02-09T14:14:57.427Z,16.30
2018-02-09T14:17:26.172Z,15.60
2018-02-09T14:19:54.071Z,15.60
2018-02-09T14:22:22.001Z,15.30
2018-02-09T14:24:50.239Z,15.10
2018-02-09T14:27:18.159Z,14.90
2018-02-09T14:29:46.194Z,14.80
2018-02-09T14:32:14.107Z,14.60
2018-02-09T14:34:42.022Z,14.50
2018-02-09T14:37:09.953Z,14.40
2018-02-09T14:39:37.830Z,14.40
2018-02-09T14:42:06.592Z,14.20
2018-02-09T14:44:34.537Z,14.10
2018-02-09T14:47:02.495Z,14.10
2018-02-09T14:49:30.473Z,14.00
2018-02-09T14:51:59.258Z,14.00
2018-02-09T14:54:27.184Z,14.00
2018-02-09T14:56:55.860Z,13.80
2018-02-09T14:59:24.539Z,13.80
2018-02-09T15:01:53.274Z,13.60
2018-02-09T15:04:21.282Z,13.60
2018-02-09T15:06:49.240Z,13.50
2018-02-09T15:09:17.138Z,13.40
2018-02-09T15:11:45.846Z,13.20
2018-02-09T15:14:13.744Z,13.10
2018-02-09T15:16:41.768Z,13.20
2018-02-09T15:19:10.431Z,13.40
2018-02-09T15:21:38.450Z,13.30
2018-02-09T15:24:06.402Z,13.20
2018-02-09T15:26:34.379Z,13.20
2018-02-09T15:29:02.324Z,13.20
2018-02-09T15:31:31.014Z,13.20
2018-02-09T15:33:59.730Z,13.10
2018-02-09T15:36:27.620Z,13.10
2018-02-09T15:38:55.567Z,12.90
2018-02-09T15:41:23.548Z,12.70
2018-02-09T15:43:51.471Z,12.50
2018-02-09T15:46:20.190Z,12.20
2018-02-09T15:48:48.222Z,12.20
2018-02-09T15:51:16.982Z,12.00
2018-02-09T15:53:44.964Z,12.00
2018-02-09T15:56:13.016Z,11.90
2018-02-09T15:58:40.923Z,11.80
2018-02-09T16:01:09.668Z,11.60
2018-02-09T16:03:37.590Z,11.50
2018-02-09T16:06:05.594Z,11.50
2018-02-09T16:08:33.761Z,11.40
2018-02-09T16:11:01.810Z,11.30
2018-02-09T16:13:29.727Z,11.20
2018-02-09T16:15:57.761Z,11.10
2018-02-09T16:18:25.845Z,11.00
2018-02-09T16:20:53.798Z,10.90
2018-02-09T16:23:21.755Z,10.80
2018-02-09T16:25:49.678Z,10.70
2018-02-09T16:28:17.672Z,10.70
2018-02-09T16:30:46.371Z,10.50
2018-02-09T16:33:14.375Z,10.50
2018-02-09T16:35:42.363Z,10.40
2018-02-09T16:38:10.247Z,10.30
2018-02-09T16:40:38.220Z,10.20
2018-02-09T16:43:06.920Z,10.10
2018-02-09T16:45:34.964Z,10.00
2018-02-09T16:48:02.945Z,10.00
2018-02-09T16:50:31.658Z,9.80
2018-02-09T16:52:59.699Z,9.70
2018-02-09T16:55:27.703Z,9.70
2018-02-09T16:57:55.649Z,9.70
2018-02-09T17:00:24.407Z,9.50
2018-02-09T17:02:52.386Z,9.50
2018-02-09T17:05:20.348Z,9.50
2018-02-09T17:07:48.258Z,9.40
2018-02-09T17:10:16.228Z,9.30
2018-02-09T17:12:44.306Z,9.30
2018-02-09T17:15:12.280Z,9.20
2018-02-09T17:17:40.296Z,9.10
2018-02-09T17:20:09.042Z,9.10
2018-02-09T17:22:36.978Z,9.00
2018-02-09T17:25:05.002Z,8.90
2018-02-09T17:27:32.933Z,8.90
2018-02-09T17:30:00.866Z,8.90
2018-02-09T17:32:29.634Z,8.80
2018-02-09T17:34:57.511Z,8.80
2018-02-09T17:37:25.525Z,8.70
2018-02-09T17:39:53.683Z,8.70
2018-02-09T17:42:21.692Z,8.60
2018-02-09T17:44:49.703Z,8.60
2018-02-09T17:47:18.621Z,8.60
2018-02-09T17:49:46.635Z,8.50
2018-02-09T17:52:15.379Z,8.50
2018-02-09T17:54:43.317Z,8.40
2018-02-09T17:57:12.064Z,8.40
2018-02-09T17:59:39.991Z,8.40
2018-02-09T18:02:08.769Z,8.40
2018-02-09T18:04:37.550Z,8.30
2018-02-09T18:07:06.204Z,8.20
2018-02-09T18:09:34.154Z,8.20
2018-02-09T18:12:02.080Z,8.20
2018-02-09T18:14:30.845Z,8.20
2018-02-09T18:16:58.982Z,8.10
2018-02-09T18:19:26.947Z,8.10
2018-02-09T18:21:54.918Z,8.10
2018-02-09T18:24:22.945Z,8.10
2018-02-09T18:26:51.715Z,8.00
2018-02-09T18:29:19.664Z,8.00
2018-02-09T18:31:47.679Z,8.00
2018-02-09T18:34:16.426Z,8.00
2018-02-09T18:36:45.071Z,8.00
2018-02-09T18:39:13.038Z,8.00
2018-02-09T18:41:41.110Z,8.00
2018-02-09T18:44:09.238Z,7.90
2018-02-09T18:46:38.147Z,7.90
2018-02-09T18:49:06.903Z,7.90
2018-02-09T18:51:36.990Z,7.80
2018-02-09T18:54:04.970Z,7.80
2018-02-09T18:56:32.906Z,7.80
2018-02-09T18:59:00.823Z,7.80
2018-02-09T19:01:28.824Z,7.70
2018-02-09T19:03:57.618Z,7.70
2018-02-09T19:06:26.308Z,7.70
2018-02-09T19:08:54.957Z,7.60
2018-02-09T19:11:22.864Z,7.60
2018-02-09T19:13:50.772Z,7.60
2018-02-09T19:16:18.648Z,7.60
2018-02-09T19:18:46.575Z,7.60
2018-02-09T19:21:14.452Z,7.50
2018-02-09T19:23:42.383Z,7.50
2018-02-09T19:26:10.331Z,7.50
2018-02-09T19:28:38.207Z,7.40
2018-02-09T19:31:06.306Z,7.30
2018-02-09T19:33:34.244Z,7.30
2018-02-09T19:36:02.237Z,7.30
2018-02-09T19:38:30.118Z,7.20
2018-02-09T19:40:58.102Z,7.20
2018-02-09T19:43:26.022Z,7.20
2018-02-09T19:45:53.942Z,7.20
2018-02-09T19:48:21.908Z,7.20
2018-02-09T19:50:49.881Z,7.10
2018-02-09T19:53:17.764Z,7.10
2018-02-09T19:55:45.678Z,7.00
2018-02-09T19:58:14.383Z,7.00
2018-02-09T20:00:42.388Z,6.90
2018-02-09T20:03:10.321Z,6.90
2018-02-09T20:05:38.275Z,6.90
2018-02-09T20:08:07.239Z,6.90
2018-02-09T20:10:36.026Z,6.80
2018-02-09T20:13:04.028Z,6.80
2018-02-09T20:15:32.114Z,6.80
2018-02-09T20:18:00.945Z,6.70
2018-02-09T20:20:30.958Z,6.60
2018-02-09T20:22:59.131Z,6.60
2018-02-09T20:25:28.871Z,6.50
2018-02-09T20:28:00.400Z,6.40
2018-02-09T20:30:32.417Z,6.40
2018-02-09T20:33:04.391Z,6.40
2018-02-09T20:35:38.112Z,6.30
2018-02-09T20:38:08.569Z,6.30
2018-02-09T20:40:38.990Z,6.20
2018-02-09T20:43:11.083Z,6.20
2018-02-09T20:45:42.732Z,6.10
2018-02-09T20:48:11.492Z,6.10
2018-02-09T20:50:43.014Z,6.10
2018-02-09T20:53:15.771Z,6.00
2018-02-09T20:55:46.837Z,6.00
2018-02-09T20:58:18.721Z,6.00
2018-02-09T21:00:53.980Z,5.90
2018-02-09T21:03:25.670Z,5.80
2018-02-09T21:05:57.169Z,5.80
2018-02-09T21:08:27.986Z,5.80
2018-02-09T21:10:59.780Z,5.70
2018-02-09T21:13:31.035Z,5.70
2018-02-09T21:16:03.977Z,5.60
2018-02-09T21:18:36.756Z,5.60
2018-02-09T21:21:07.781Z,5.60
2018-02-09T21:23:40.122Z,5.60
2018-02-09T21:26:11.179Z,5.50
2018-02-09T21:28:45.471Z,5.50
2018-02-09T21:31:22.637Z,5.50
2018-02-09T21:33:58.856Z,5.50
2018-02-09T21:36:30.797Z,5.40
2018-02-09T21:39:02.783Z,5.50
2018-02-09T21:41:38.550Z,5.50
2018-02-09T21:44:11.028Z,5.50
2018-02-09T21:46:42.886Z,5.40
2018-02-09T21:49:17.962Z,5.40
2018-02-09T21:51:49.509Z,5.40
2018-02-09T21:54:20.241Z,5.40
2018-02-09T21:56:51.109Z,5.40
2018-02-09T21:59:22.870Z,5.40
2018-02-09T22:01:55.145Z,5.30
2018-02-09T22:04:25.805Z,5.30
2018-02-09T22:06:59.226Z,5.30
2018-02-09T22:09:31.435Z,5.30
2018-02-09T22:12:03.558Z,5.30
2018-02-09T22:14:39.794Z,5.30
2018-02-09T22:17:12.985Z,5.20
2018-02-09T22:19:46.829Z,5.30
2018-02-09T22:22:20.714Z,5.30
2018-02-09T22:24:52.298Z,5.30
2018-02-09T22:27:24.800Z,5.20
2018-02-09T22:29:56.494Z,5.20
2018-02-09T22:32:29.970Z,5.20
2018-02-09T22:35:01.594Z,5.20
2018-02-09T22:37:35.918Z,5.20
2018-02-09T22:40:08.311Z,5.10
2018-02-09T22:42:40.991Z,5.20
2018-02-09T22:45:12.907Z,5.10
2018-02-09T22:47:47.251Z,5.10
2018-02-09T22:50:20.236Z,5.00
2018-02-09T22:52:51.494Z,5.00
2018-02-09T22:55:22.061Z,4.90
2018-02-09T22:57:53.355Z,4.90
2018-02-09T23:00:23.961Z,4.90
2018-02-09T23:02:57.403Z,4.90
2018-02-09T23:05:27.185Z,4.90
2018-02-09T23:07:57.461Z,4.80
2018-02-09T23:10:28.385Z,4.80
2018-02-09T23:13:02.048Z,4.70
2018-02-09T23:15:36.189Z,4.70
2018-02-09T23:18:08.756Z,4.70
2018-02-09T23:20:44.942Z,4.70
2018-02-09T23:23:15.746Z,4.60
2018-02-09T23:25:48.837Z,4.60
2018-02-09T23:28:19.784Z,4.60
2018-02-09T23:30:53.948Z,4.60
2018-02-09T23:33:26.693Z,4.50
2018-02-09T23:35:58.855Z,4.50
2018-02-09T23:38:33.971Z,4.50
2018-02-09T23:41:07.310Z,4.50
2018-02-09T23:43:42.009Z,4.50
2018-02-09T23:46:14.713Z,4.40
2018-02-09T23:48:48.435Z,4.40
2018-02-09T23:51:21.240Z,4.40
2018-02-09T23:53:50.459Z,4.40
2018-02-09T23:56:22.521Z,4.30
2018-02-09T23:58:54.567Z,4.30
